Time;durP1;ratioP1;P1;durP2;ratioP2;P2;SDS_P1;SDS_P2;PMS_P1;PMS_P2;Temp;Humidity;BMP_temperature;BMP_pressure;BME280_temperature;BME280_humidity;BME280_pressure;Samples;Min_cycle;Max_cycle;Signal;HPM_P1;HPM_P2
2024/01/18 00:00:25;;;;;;;273.88;106.07;;;;;;;7.83;nan;99053.72;5006640;28;20117;-73
2024/01/18 00:02:55;;;;;;;312.10;110.78;;;;;;;7.74;nan;99055.56;5007895;28;20053;-73
2024/01/18 00:05:25;;;;;;;275.50;108.03;;;;;;;7.73;nan;99048.63;5016998;28;20069;-73
2024/01/18 00:07:54;;;;;;;242.07;107.38;;;;;;;7.87;nan;99055.88;5027244;28;20130;-72
2024/01/18 00:10:26;;;;;;;228.75;112.85;;;;;;;7.98;nan;99054.69;5026573;28;20037;-73
2024/01/18 00:12:56;;;;;;;230.95;112.20;;;;;;;8.08;nan;99050.88;5027091;28;20158;-72
2024/01/18 00:15:25;;;;;;;227.02;111.03;;;;;;;8.06;nan;99050.22;5008035;28;20049;-73
2024/01/18 00:17:54;;;;;;;222.20;111.13;;;;;;;8.26;nan;99052.50;4995455;28;20046;-73
2024/01/18 00:20:24;;;;;;;235.73;110.38;;;;;;;8.03;nan;99053.19;4994022;28;20053;-73
2024/01/18 00:22:53;;;;;;;240.85;114.13;;;;;;;7.98;nan;99052.03;4986759;28;20095;-73
2024/01/18 00:25:23;;;;;;;244.10;109.85;;;;;;;7.91;nan;99051.91;5019050;28;20103;-73
2024/01/18 00:27:52;;;;;;;224.70;109.32;;;;;;;8.04;nan;99046.94;5001072;28;20076;-73
2024/01/18 00:30:21;;;;;;;241.13;113.25;;;;;;;7.96;nan;99052.22;5022881;28;20065;-73
2024/01/18 00:32:50;;;;;;;239.38;107.40;;;;;;;7.94;nan;99041.00;4994610;28;20116;-73
2024/01/18 00:35:20;;;;;;;228.30;108.22;;;;;;;7.86;nan;99051.56;5001627;28;20050;-73
2024/01/18 00:37:49;;;;;;;260.75;108.20;;;;;;;7.72;nan;99046.97;4995441;28;20053;-75
2024/01/18 00:40:19;;;;;;;241.43;107.63;;;;;;;7.74;nan;99049.44;5001086;28;20042;-73
2024/01/18 00:42:48;;;;;;;222.32;104.93;;;;;;;7.82;nan;99058.19;4986582;28;20045;-73
2024/01/18 00:45:17;;;;;;;231.63;103.38;;;;;;;7.73;nan;99047.78;4994303;28;20042;-73
2024/01/18 00:47:46;;;;;;;230.23;107.25;;;;;;;7.80;nan;99059.31;4991767;28;20141;-73
2024/01/18 00:50:16;;;;;;;233.80;105.15;;;;;;;7.64;nan;99052.25;4989225;28;20054;-72
2024/01/18 00:52:46;;;;;;;237.38;103.63;;;;;;;7.65;nan;99061.81;4998683;28;20108;-73
2024/01/18 00:55:15;;;;;;;233.50;104.57;;;;;;;7.70;nan;99059.47;5013962;28;20045;-73
2024/01/18 00:57:44;;;;;;;251.95;108.25;;;;;;;7.56;nan;99065.44;5027036;28;20080;-73
2024/01/18 01:00:15;;;;;;;223.25;101.43;;;;;;;7.72;nan;99068.06;5008277;28;20107;-73
2024/01/18 01:02:44;;;;;;;258.80;103.75;;;;;;;7.52;nan;99078.09;5003816;28;20500;-73
2024/01/18 01:05:13;;;;;;;253.50;104.40;;;;;;;7.46;nan;99085.84;4985368;28;20074;-74
2024/01/18 01:07:44;;;;;;;231.90;105.55;;;;;;;7.60;nan;99072.84;4987055;28;20243;-74
2024/01/18 01:10:13;;;;;;;297.05;109.57;;;;;;;7.46;nan;99077.94;4999253;28;20404;-73
2024/01/18 01:12:42;;;;;;;233.68;105.38;;;;;;;7.53;nan;99085.00;5025873;28;20048;-74
2024/01/18 01:15:11;;;;;;;270.10;106.20;;;;;;;7.55;nan;99083.06;4996580;28;20105;-73
2024/01/18 01:17:43;;;;;;;258.25;107.10;;;;;;;7.59;nan;99088.81;5000802;28;20549;-74
2024/01/18 01:20:12;;;;;;;288.40;111.07;;;;;;;7.54;nan;99086.66;4997803;28;20088;-74
2024/01/18 01:22:42;;;;;;;277.23;113.35;;;;;;;7.58;nan;99082.72;5003134;28;20061;-74
2024/01/18 01:25:12;;;;;;;274.92;112.80;;;;;;;7.57;nan;99088.13;4988626;28;20057;-73
2024/01/18 01:27:41;;;;;;;274.25;111.82;;;;;;;7.53;nan;99084.19;4989883;28;20046;-72
2024/01/18 01:30:11;;;;;;;293.65;116.97;;;;;;;7.52;nan;99093.09;4998354;28;20143;-72
2024/01/18 01:32:41;;;;;;;264.77;116.15;;;;;;;7.81;nan;99089.97;4979802;28;20046;-73
2024/01/18 01:35:11;;;;;;;286.73;116.47;;;;;;;7.69;nan;99094.75;4983309;28;20156;-73
2024/01/18 01:37:41;;;;;;;279.27;114.68;;;;;;;7.66;nan;99092.44;5006393;28;20061;-71
2024/01/18 01:40:10;;;;;;;270.30;115.18;;;;;;;7.56;nan;99103.16;4972366;28;20068;-72
2024/01/18 01:42:40;;;;;;;289.98;114.57;;;;;;;7.60;nan;99098.38;4971139;28;20051;-72
2024/01/18 01:45:10;;;;;;;274.15;106.03;;;;;;;7.50;nan;99101.16;4987629;28;20035;-72
2024/01/18 01:47:39;;;;;;;233.75;102.07;;;;;;;7.57;nan;99096.03;4999974;28;20042;-73
2024/01/18 01:50:10;;;;;;;256.58;101.18;;;;;;;7.56;nan;99107.59;4979825;28;20115;-72
2024/01/18 01:52:42;;;;;;;257.90;103.95;;;;;;;7.58;nan;99101.16;4988865;28;20051;-72
2024/01/18 01:55:15;;;;;;;205.90;96.13;;;;;;;7.66;nan;99103.81;4965103;28;20057;-70
2024/01/18 01:57:47;;;;;;;229.57;97.80;;;;;;;7.73;nan;99103.97;4959987;28;20052;-71
2024/01/18 02:00:18;;;;;;;199.02;94.38;;;;;;;7.72;nan;99109.41;4971605;28;20042;-71
2024/01/18 02:02:49;;;;;;;251.48;99.78;;;;;;;7.70;nan;99119.31;4974187;28;20782;-72
2024/01/18 02:05:19;;;;;;;201.77;88.78;;;;;;;7.67;nan;99131.00;4981516;28;20043;-70
2024/01/18 02:07:51;;;;;;;207.13;89.30;;;;;;;7.73;nan;99125.06;4969658;28;20726;-71
2024/01/18 02:10:23;;;;;;;205.32;93.13;;;;;;;7.74;nan;99131.16;4957447;28;20284;-70
2024/01/18 02:12:53;;;;;;;255.07;97.95;;;;;;;7.56;nan;99128.69;4996080;28;20506;-71
2024/01/18 02:15:23;;;;;;;215.52;89.13;;;;;;;7.44;nan;99128.16;4982984;28;20104;-73
2024/01/18 02:17:52;;;;;;;219.05;88.00;;;;;;;7.25;nan;99130.25;4970864;28;20054;-71
2024/01/18 02:20:22;;;;;;;206.90;84.35;;;;;;;7.30;nan;99131.44;4965473;28;20059;-71
2024/01/18 02:22:53;;;;;;;228.30;84.97;;;;;;;7.27;nan;99133.53;4962100;28;20426;-71
2024/01/18 02:25:25;;;;;;;271.90;85.65;;;;;;;7.36;nan;99135.22;4965379;28;20050;-71
2024/01/18 02:27:58;;;;;;;214.40;84.88;;;;;;;7.33;nan;99133.75;4962966;28;20054;-71
2024/01/18 02:30:27;;;;;;;273.67;87.68;;;;;;;7.28;nan;99135.19;4975624;28;20051;-73
2024/01/18 02:32:57;;;;;;;178.90;86.88;;;;;;;7.44;nan;99141.31;4983688;28;20142;-70
2024/01/18 02:35:27;;;;;;;182.25;85.57;;;;;;;7.42;nan;99139.84;4991639;28;20149;-69
2024/01/18 02:37:56;;;;;;;198.40;87.07;;;;;;;7.40;nan;99144.44;4979603;28;20047;-71
2024/01/18 02:40:26;;;;;;;236.07;87.35;;;;;;;7.30;nan;99143.78;4986356;28;20323;-69
2024/01/18 02:42:55;;;;;;;206.57;88.07;;;;;;;7.43;nan;99149.41;4991632;28;20120;-68
2024/01/18 02:45:25;;;;;;;208.00;87.03;;;;;;;7.28;nan;99148.38;4989554;28;20074;-69
2024/01/18 02:47:54;;;;;;;236.65;86.93;;;;;;;7.28;nan;99153.66;4989575;28;20058;-69
2024/01/18 02:50:24;;;;;;;211.52;86.63;;;;;;;7.39;nan;99153.34;4989866;28;20050;-69
2024/01/18 02:52:53;;;;;;;234.68;88.05;;;;;;;7.33;nan;99157.44;4989947;28;20061;-69
2024/01/18 02:55:23;;;;;;;237.50;88.80;;;;;;;7.40;nan;99168.16;4979972;28;20050;-68
2024/01/18 02:57:53;;;;;;;214.32;87.22;;;;;;;7.46;nan;99171.00;4987856;28;20042;-69
2024/01/18 03:00:24;;;;;;;217.70;88.65;;;;;;;7.51;nan;99173.16;4985180;28;20043;-69
2024/01/18 03:02:53;;;;;;;244.50;92.20;;;;;;;7.52;nan;99170.31;4990737;28;20042;-69
2024/01/18 03:05:23;;;;;;;213.40;89.90;;;;;;;7.46;nan;99172.78;4986252;28;20058;-69
2024/01/18 03:07:52;;;;;;;201.05;91.10;;;;;;;7.57;nan;99180.38;4990045;28;20275;-68
2024/01/18 03:10:22;;;;;;;216.80;89.82;;;;;;;7.54;nan;99175.44;4986670;28;20058;-68
2024/01/18 03:12:52;;;;;;;202.38;89.15;;;;;;;7.63;nan;99182.38;4983570;28;20042;-68
2024/01/18 03:15:21;;;;;;;177.93;91.85;;;;;;;7.70;nan;99172.84;4976636;28;21102;-72
2024/01/18 03:17:51;;;;;;;223.70;91.07;;;;;;;7.46;nan;99185.97;4979781;28;20038;-69
2024/01/18 03:20:23;;;;;;;178.23;90.97;;;;;;;7.64;nan;99182.22;4977099;28;20537;-68
2024/01/18 03:22:57;;;;;;;205.93;91.30;;;;;;;7.81;nan;99192.78;4965594;28;20069;-68
2024/01/18 03:25:27;;;;;;;191.70;89.38;;;;;;;7.81;nan;99193.63;4989278;28;20048;-68
2024/01/18 03:27:56;;;;;;;191.57;92.43;;;;;;;7.86;nan;99201.88;5000513;28;20053;-68
2024/01/18 03:30:25;;;;;;;230.07;91.72;;;;;;;7.68;nan;99204.66;4981107;28;20203;-68
2024/01/18 03:32:55;;;;;;;207.60;92.03;;;;;;;7.53;nan;99205.41;5015649;28;20058;-68
2024/01/18 03:35:24;;;;;;;185.93;89.65;;;;;;;7.62;nan;99207.09;5007393;28;20057;-68
2024/01/18 03:37:53;;;;;;;204.73;96.90;;;;;;;7.80;nan;99225.41;4995551;28;20060;-68
2024/01/18 03:40:23;;;;;;;269.65;100.70;;;;;;;7.82;nan;99232.19;4987496;28;20129;-71
2024/01/18 03:42:52;;;;;;;230.45;99.88;;;;;;;8.06;nan;99234.03;4989224;28;20623;-70
2024/01/18 03:45:22;;;;;;;219.05;98.70;;;;;;;8.16;nan;99236.50;5006413;28;20054;-70
2024/01/18 03:47:51;;;;;;;230.70;100.38;;;;;;;8.34;nan;99245.97;4986793;28;20061;-71
2024/01/18 03:50:21;;;;;;;238.88;104.97;;;;;;;8.26;nan;99251.19;4997442;28;20501;-70
2024/01/18 03:52:50;;;;;;;283.85;115.97;;;;;;;8.46;nan;99249.91;4990651;28;20046;-71
2024/01/18 03:55:20;;;;;;;302.17;124.45;;;;;;;8.34;nan;99253.03;4993229;28;20557;-71
2024/01/18 03:57:49;;;;;;;302.13;128.23;;;;;;;8.57;nan;99257.50;4994524;28;20140;-70
2024/01/18 04:00:19;;;;;;;310.67;128.63;;;;;;;8.51;nan;99259.97;4988494;28;20050;-65
2024/01/18 04:02:48;;;;;;;296.83;122.20;;;;;;;8.52;nan;99258.97;4988845;28;20092;-67
2024/01/18 04:05:18;;;;;;;333.17;139.27;;;;;;;8.65;nan;99269.88;4977730;28;20045;-70
2024/01/18 04:07:47;;;;;;;339.70;149.07;;;;;;;8.66;nan;99275.97;5003040;28;20050;-68
2024/01/18 04:10:17;;;;;;;342.88;142.70;;;;;;;8.72;nan;99272.69;4988863;28;20046;-68
2024/01/18 04:12:46;;;;;;;332.40;145.38;;;;;;;8.80;nan;99289.34;4987790;28;20057;-68
2024/01/18 04:15:16;;;;;;;327.30;144.23;;;;;;;8.91;nan;99283.69;4996004;28;20053;-68
2024/01/18 04:17:47;;;;;;;355.58;141.00;;;;;;;8.83;nan;99286.34;4991102;28;20068;-68
2024/01/18 04:20:21;;;;;;;353.35;142.63;;;;;;;8.67;nan;99288.19;4983954;28;20465;-69
2024/01/18 04:22:51;;;;;;;350.20;141.60;;;;;;;8.77;nan;99288.81;5005117;28;20505;-68
2024/01/18 04:25:21;;;;;;;345.55;143.05;;;;;;;8.82;nan;99295.25;4986955;28;20050;-69
2024/01/18 04:27:50;;;;;;;359.45;142.32;;;;;;;8.85;nan;99297.56;4983992;28;20537;-69
2024/01/18 04:30:20;;;;;;;321.67;135.20;;;;;;;8.91;nan;99304.00;5000670;28;20077;-69
2024/01/18 04:32:49;;;;;;;340.13;138.23;;;;;;;8.99;nan;99311.91;4993021;28;20062;-69
2024/01/18 04:35:18;;;;;;;329.83;132.93;;;;;;;9.17;nan;99314.34;4977394;28;20109;-70
2024/01/18 04:37:48;;;;;;;342.48;132.63;;;;;;;9.07;nan;99308.47;4979880;28;20546;-69
2024/01/18 04:40:17;;;;;;;336.58;131.02;;;;;;;8.94;nan;99309.78;4977873;28;20061;-69
2024/01/18 04:42:46;;;;;;;350.20;134.48;;;;;;;8.84;nan;99313.59;4958895;28;20038;-67
2024/01/18 04:45:16;;;;;;;334.60;131.57;;;;;;;8.93;nan;99312.59;4959242;28;20054;-67
2024/01/18 04:47:46;;;;;;;302.95;126.03;;;;;;;9.12;nan;99312.22;4947227;28;20053;-69
2024/01/18 04:56:46;;;;;;;287.33;115.68;;;;;;;9.43;nan;99317.59;4977766;28;19960;-69
2024/01/18 04:59:15;;;;;;;276.48;113.53;;;;;;;9.68;nan;99328.94;4966152;28;20141;-69
2024/01/18 05:01:44;;;;;;;265.42;112.85;;;;;;;9.29;nan;99327.03;4956218;28;20067;-68
2024/01/18 05:04:15;;;;;;;252.73;107.88;;;;;;;9.30;nan;99319.94;4968831;28;20420;-69
2024/01/18 05:06:45;;;;;;;242.40;109.13;;;;;;;9.47;nan;99329.47;4966196;28;20051;-69
2024/01/18 05:09:16;;;;;;;233.82;103.85;;;;;;;9.76;nan;99331.53;4973525;28;20120;-68
2024/01/18 05:11:47;;;;;;;217.13;104.13;;;;;;;10.14;nan;99340.44;4978095;28;20050;-69
2024/01/18 05:14:16;;;;;;;207.80;101.90;;;;;;;10.18;nan;99341.75;4962791;28;20511;-69
2024/01/18 05:16:50;;;;;;;196.43;97.07;;;;;;;10.17;nan;99346.25;4974486;28;20059;-69
2024/01/18 05:19:21;;;;;;;204.93;99.18;;;;;;;10.44;nan;99337.00;4961310;28;20050;-70
2024/01/18 05:21:51;;;;;;;192.95;99.15;;;;;;;10.86;nan;99338.31;4977325;28;20871;-69
2024/01/18 05:24:20;;;;;;;195.05;96.97;;;;;;;11.10;nan;99346.06;4972736;28;20101;-70
2024/01/18 05:26:49;;;;;;;181.35;89.82;;;;;;;11.02;nan;99349.59;4998487;28;20505;-69
2024/01/18 05:29:19;;;;;;;173.93;90.63;;;;;;;11.06;nan;99348.25;4994651;28;20072;-70
2024/01/18 05:31:49;;;;;;;173.10;90.88;;;;;;;10.89;nan;99351.22;4958227;28;20096;-70
2024/01/18 05:34:18;;;;;;;170.15;89.68;;;;;;;10.59;nan;99352.94;5001683;28;20049;-69
2024/01/18 05:36:48;;;;;;;160.75;91.35;;;;;;;10.55;nan;99344.53;4992138;28;20054;-71
2024/01/18 05:39:17;;;;;;;160.52;89.32;;;;;;;10.70;nan;99334.00;4994243;28;20056;-72
2024/01/18 05:41:47;;;;;;;181.02;95.70;;;;;;;10.83;nan;99326.25;4991897;28;20152;-70
2024/01/18 05:44:16;;;;;;;182.70;96.07;;;;;;;10.96;nan;99325.66;4994523;28;20053;-71
2024/01/18 05:46:46;;;;;;;171.10;94.22;;;;;;;10.90;nan;99313.94;4980262;28;20088;-69
2024/01/18 05:49:16;;;;;;;188.43;95.57;;;;;;;10.90;nan;99305.16;4986971;28;20191;-67
2024/01/18 05:51:45;;;;;;;181.43;97.35;;;;;;;10.97;nan;99287.56;4978617;28;20049;-69
2024/01/18 05:54:15;;;;;;;185.75;98.80;;;;;;;11.38;nan;99294.06;4990414;28;20046;-67
2024/01/18 05:56:48;;;;;;;179.90;98.03;;;;;;;11.41;nan;99290.22;4994417;28;20156;-69
2024/01/18 05:59:17;;;;;;;187.10;103.63;;;;;;;11.76;nan;99286.03;5001728;28;20058;-68
2024/01/18 06:01:46;;;;;;;193.38;101.18;;;;;;;11.83;nan;99286.91;5002787;28;20085;-70
2024/01/18 06:04:16;;;;;;;185.93;99.40;;;;;;;11.88;nan;99285.34;4997368;28;20061;-67
2024/01/18 06:06:46;;;;;;;186.50;99.88;;;;;;;12.06;nan;99285.75;4999884;28;20046;-69
2024/01/18 06:09:16;;;;;;;190.80;104.47;;;;;;;11.79;nan;99282.97;4989363;28;20487;-69
2024/01/18 06:11:48;;;;;;;178.05;99.13;;;;;;;12.21;nan;99277.75;5001124;28;20041;-69
2024/01/18 06:14:17;;;;;;;185.15;99.25;;;;;;;12.67;nan;99280.84;5000448;28;20569;-68
2024/01/18 06:16:47;;;;;;;185.85;101.25;;;;;;;12.38;nan;99276.50;4989743;28;20045;-68
2024/01/18 06:19:17;;;;;;;199.35;108.68;;;;;;;12.29;nan;99268.84;4995646;28;20417;-69
2024/01/18 06:21:46;;;;;;;208.50;108.63;;;;;;;12.99;nan;99267.00;4991956;28;20057;-69
2024/01/18 06:24:16;;;;;;;197.70;105.88;;;;;;;13.23;nan;99270.25;4998380;28;20049;-68
2024/01/18 06:26:46;;;;;;;197.57;103.85;;;;;;;13.29;nan;99269.44;4992295;28;20050;-69
2024/01/18 06:29:16;;;;;;;202.73;106.00;;;;;;;13.36;nan;99267.66;4996671;28;20144;-68
2024/01/18 06:31:46;;;;;;;197.13;107.35;;;;;;;13.53;nan;99257.50;4999403;28;20049;-68
2024/01/18 06:34:17;;;;;;;203.98;108.95;;;;;;;13.16;nan;99256.91;4998781;28;20064;-68
2024/01/18 06:36:47;;;;;;;201.15;109.43;;;;;;;13.27;nan;99248.38;4991217;28;20080;-69
2024/01/18 06:39:16;;;;;;;200.18;108.97;;;;;;;13.16;nan;99243.59;4988222;28;20054;-69
2024/01/18 06:41:47;;;;;;;205.73;110.05;;;;;;;13.40;nan;99237.81;4995085;28;20057;-68
2024/01/18 06:44:16;;;;;;;196.68;109.15;;;;;;;13.55;nan;99235.00;4995696;28;20211;-68
2024/01/18 06:46:46;;;;;;;201.23;109.53;;;;;;;13.63;nan;99237.47;4987171;28;20046;-69
2024/01/18 06:49:15;;;;;;;215.85;116.10;;;;;;;13.54;nan;99236.03;4986574;28;20050;-69
2024/01/18 06:51:44;;;;;;;216.20;114.80;;;;;;;14.19;nan;99224.75;4997550;28;20065;-69
2024/01/18 06:54:14;;;;;;;225.48;122.22;;;;;;;14.08;nan;99220.00;4995195;28;20053;-69
2024/01/18 06:56:47;;;;;;;229.38;125.80;;;;;;;14.42;nan;99229.72;4985674;28;20042;-69
2024/01/18 06:59:16;;;;;;;215.13;120.20;;;;;;;14.30;nan;99217.97;4991132;28;20493;-70
2024/01/18 07:01:46;;;;;;;207.27;117.25;;;;;;;14.53;nan;99214.94;4993472;28;20050;-68
2024/01/18 07:04:15;;;;;;;220.43;121.78;;;;;;;15.12;nan;99210.38;4974339;28;20592;-70
2024/01/18 07:06:45;;;;;;;205.38;120.53;;;;;;;14.65;nan;99207.97;4987230;28;20057;-70
2024/01/18 07:09:14;;;;;;;219.32;121.43;;;;;;;14.50;nan;99200.22;4977640;28;20516;-70
2024/01/18 07:11:43;;;;;;;206.35;117.63;;;;;;;14.64;nan;99201.84;5001657;28;20048;-70
2024/01/18 07:14:13;;;;;;;202.55;118.10;;;;;;;15.11;nan;99203.41;4999047;28;20038;-70
2024/01/18 07:16:42;;;;;;;204.13;115.65;;;;;;;15.17;nan;99186.56;4989494;28;20050;-68
2024/01/18 07:19:12;;;;;;;212.90;118.00;;;;;;;15.43;nan;99188.31;4985188;28;20061;-68
2024/01/18 07:21:41;;;;;;;201.45;117.85;;;;;;;15.49;nan;99192.00;5002931;28;20129;-68
2024/01/18 07:24:11;;;;;;;198.95;113.65;;;;;;;15.11;nan;99182.06;4999600;28;20061;-68
2024/01/18 07:26:40;;;;;;;188.38;114.45;;;;;;;15.17;nan;99183.91;4993735;28;20050;-67
2024/01/18 07:29:09;;;;;;;192.85;109.15;;;;;;;15.15;nan;99183.28;4992885;28;20141;-68
2024/01/18 07:31:40;;;;;;;198.65;114.75;;;;;;;15.46;nan;99176.38;4983169;28;20097;-69
2024/01/18 07:34:15;;;;;;;189.75;111.85;;;;;;;15.73;nan;99175.25;4995830;28;20054;-68
2024/01/18 07:36:45;;;;;;;190.55;112.30;;;;;;;15.68;nan;99167.06;5001149;28;20049;-68
2024/01/18 07:39:15;;;;;;;182.20;111.30;;;;;;;15.94;nan;99166.09;4983524;28;20050;-68
2024/01/18 07:41:45;;;;;;;186.18;109.10;;;;;;;15.63;nan;99161.53;4981847;28;20052;-68
2024/01/18 07:44:14;;;;;;;199.95;114.95;;;;;;;15.37;nan;99150.97;4993061;28;20137;-67
2024/01/18 07:46:43;;;;;;;180.93;111.93;;;;;;;15.41;nan;99144.16;4988502;28;20043;-67
2024/01/18 07:49:13;;;;;;;166.45;107.00;;;;;;;15.77;nan;99135.59;4989025;28;20785;-68
2024/01/18 07:51:43;;;;;;;182.55;107.10;;;;;;;15.86;nan;99127.09;4988499;28;20585;-68
2024/01/18 07:54:13;;;;;;;175.48;104.47;;;;;;;16.19;nan;99121.53;5003293;28;20524;-68
2024/01/18 07:56:43;;;;;;;188.27;109.65;;;;;;;16.09;nan;99121.19;4990488;28;20035;-68
2024/01/18 07:59:12;;;;;;;194.52;109.95;;;;;;;15.93;nan;99121.72;4997341;28;20522;-68
2024/01/18 08:01:43;;;;;;;170.75;103.90;;;;;;;15.78;nan;99116.69;4984471;28;20055;-68
2024/01/18 08:04:12;;;;;;;172.95;105.10;;;;;;;15.81;nan;99110.91;5003125;28;20256;-68
2024/01/18 08:06:42;;;;;;;174.20;105.57;;;;;;;15.95;nan;99108.97;4994715;28;20050;-68
2024/01/18 08:09:12;;;;;;;170.88;106.25;;;;;;;15.79;nan;99104.97;4986678;28;20056;-67
2024/01/18 08:11:42;;;;;;;186.57;106.63;;;;;;;15.46;nan;99098.97;4997422;28;20042;-67
2024/01/18 08:14:12;;;;;;;177.27;105.97;;;;;;;15.89;nan;99097.28;4994603;28;20064;-67
2024/01/18 08:16:44;;;;;;;167.52;102.57;;;;;;;16.09;nan;99087.28;4988143;28;20475;-68
2024/01/18 08:19:13;;;;;;;168.43;103.47;;;;;;;16.07;nan;99088.50;4994320;28;20053;-67
2024/01/18 08:21:43;;;;;;;188.25;107.93;;;;;;;16.12;nan;99088.69;5002338;28;20041;-67
2024/01/18 08:24:13;;;;;;;169.98;102.65;;;;;;;16.39;nan;99094.59;5003744;28;20155;-67
2024/01/18 08:26:43;;;;;;;162.05;98.75;;;;;;;16.41;nan;99090.69;4992716;28;20049;-68
2024/01/18 08:29:13;;;;;;;161.68;101.90;;;;;;;16.43;nan;99091.28;5014564;28;20056;-68
2024/01/18 08:31:42;;;;;;;166.45;98.68;;;;;;;16.36;nan;99084.38;4994252;28;20046;-68
2024/01/18 08:34:12;;;;;;;152.85;96.95;;;;;;;16.44;nan;99076.06;5009489;28;20132;-67
2024/01/18 08:36:41;;;;;;;149.90;97.32;;;;;;;16.44;nan;99084.91;4993952;28;20520;-67
2024/01/18 08:39:11;;;;;;;154.85;94.15;;;;;;;16.33;nan;99080.25;5002073;28;20144;-67
2024/01/18 08:41:41;;;;;;;154.80;96.68;;;;;;;16.28;nan;99081.97;5001182;28;20050;-67
2024/01/18 08:44:10;;;;;;;153.38;96.30;;;;;;;16.14;nan;99076.75;5001981;28;20577;-67
2024/01/18 08:46:40;;;;;;;155.13;94.63;;;;;;;16.22;nan;99078.31;4992902;28;20468;-68
2024/01/18 08:49:09;;;;;;;140.75;91.82;;;;;;;16.29;nan;99080.91;4989575;28;20053;-67
2024/01/18 08:51:39;;;;;;;146.45;92.45;;;;;;;16.21;nan;99074.00;4984352;28;20058;-67
2024/01/18 08:54:08;;;;;;;149.75;95.47;;;;;;;16.25;nan;99079.72;4982515;28;20149;-67
2024/01/18 08:56:37;;;;;;;154.65;95.07;;;;;;;16.06;nan;99068.19;4991268;28;20057;-67
2024/01/18 08:59:07;;;;;;;147.95;95.85;;;;;;;16.22;nan;99072.16;4988903;28;20073;-67
2024/01/18 09:01:36;;;;;;;152.23;95.60;;;;;;;16.23;nan;99063.94;4995503;28;20564;-68
2024/01/18 09:04:06;;;;;;;157.70;94.55;;;;;;;16.34;nan;99070.38;4996020;28;20059;-67
2024/01/18 09:06:36;;;;;;;147.52;94.50;;;;;;;16.45;nan;99056.31;4994830;28;20049;-68
2024/01/18 09:09:10;;;;;;;152.45;95.32;;;;;;;16.43;nan;99056.50;5003433;28;20049;-67
2024/01/18 09:11:40;;;;;;;153.07;92.65;;;;;;;16.40;nan;99056.16;4993508;28;20634;-67
2024/01/18 09:14:09;;;;;;;144.98;92.30;;;;;;;16.30;nan;99061.16;4994955;28;20057;-67
2024/01/18 09:16:38;;;;;;;143.70;91.28;;;;;;;16.25;nan;99059.16;4992821;28;20046;-67
2024/01/18 09:19:09;;;;;;;144.75;91.22;;;;;;;16.39;nan;99049.16;4980400;28;20050;-68
2024/01/18 09:21:43;;;;;;;150.05;89.30;;;;;;;16.25;nan;99053.00;4990798;28;20054;-67
2024/01/18 09:24:14;;;;;;;136.05;88.72;;;;;;;16.16;nan;99053.28;4994525;28;20370;-67
2024/01/18 09:26:44;;;;;;;170.40;93.72;;;;;;;16.06;nan;99047.63;5011720;28;20049;-67
2024/01/18 09:29:13;;;;;;;140.43;89.40;;;;;;;15.92;nan;99039.94;4999676;28;20049;-68
2024/01/18 09:31:43;;;;;;;142.70;86.75;;;;;;;15.81;nan;99040.63;4987760;28;20731;-67
2024/01/18 09:34:12;;;;;;;147.10;89.35;;;;;;;15.81;nan;99044.13;4992758;28;20050;-67
2024/01/18 09:36:42;;;;;;;155.00;89.55;;;;;;;15.92;nan;99040.78;4970054;28;20101;-67
2024/01/18 09:39:17;;;;;;;142.38;88.25;;;;;;;15.79;nan;99043.53;4990286;28;20097;-67
2024/01/18 09:41:51;;;;;;;137.07;88.83;;;;;;;15.72;nan;99034.75;4982303;28;20069;-67
2024/01/18 09:44:26;;;;;;;140.23;88.68;;;;;;;15.77;nan;99032.25;4990905;28;20070;-67
2024/01/18 09:46:56;;;;;;;144.63;89.18;;;;;;;15.96;nan;99033.94;4991985;28;20754;-67
2024/01/18 09:49:28;;;;;;;151.75;92.70;;;;;;;15.99;nan;99040.69;4995340;28;20042;-67
2024/01/18 09:51:58;;;;;;;144.38;90.05;;;;;;;15.74;nan;99038.03;4989417;28;20058;-67
2024/01/18 09:54:28;;;;;;;143.23;89.85;;;;;;;15.71;nan;99031.25;4997176;28;20078;-67
2024/01/18 09:57:01;;;;;;;141.77;89.07;;;;;;;15.73;nan;99023.03;4995118;28;20050;-67
2024/01/18 09:59:33;;;;;;;139.82;88.38;;;;;;;15.78;nan;99022.38;4994383;28;20069;-67
2024/01/18 10:02:03;;;;;;;146.90;90.23;;;;;;;15.77;nan;99026.91;4986202;28;20140;-69
2024/01/18 10:04:33;;;;;;;148.90;90.95;;;;;;;15.88;nan;99026.22;4992135;28;20485;-69
2024/01/18 10:07:03;;;;;;;142.25;89.90;;;;;;;16.05;nan;99023.81;4991590;28;20530;-69
2024/01/18 10:09:33;;;;;;;148.32;91.35;;;;;;;16.11;nan;99026.41;4995840;28;20056;-68
2024/01/18 10:12:03;;;;;;;143.13;89.80;;;;;;;15.97;nan;99024.91;4992869;28;20053;-65
2024/01/18 10:14:44;;;;;;;151.52;91.82;;;;;;;16.02;nan;99024.25;4986917;28;20050;-65
2024/01/18 10:17:21;;;;;;;139.55;90.10;;;;;;;16.00;nan;99020.97;4983339;28;20434;-65
2024/01/18 10:19:55;;;;;;;161.85;95.13;;;;;;;15.99;nan;99020.16;4987563;28;20070;-65
2024/01/18 10:22:26;;;;;;;154.38;93.05;;;;;;;15.96;nan;99019.78;4991707;28;20114;-67
2024/01/18 10:24:56;;;;;;;143.55;91.20;;;;;;;15.97;nan;99019.56;4992940;28;20046;-66
2024/01/18 10:27:26;;;;;;;154.38;88.68;;;;;;;16.00;nan;99020.97;4990011;28;21126;-65
2024/01/18 10:29:55;;;;;;;149.07;89.88;;;;;;;15.92;nan;99021.25;4988194;28;20047;-67
2024/01/18 10:32:32;;;;;;;146.05;92.50;;;;;;;15.88;nan;99020.88;4983705;28;20427;-68
2024/01/18 10:35:02;;;;;;;150.20;92.22;;;;;;;16.00;nan;99021.78;4990505;28;20056;-69
2024/01/18 10:37:34;;;;;;;141.35;88.78;;;;;;;16.00;nan;99015.63;4991219;28;20502;-68
2024/01/18 10:40:04;;;;;;;140.40;89.00;;;;;;;16.02;nan;99010.88;4999174;28;20061;-67
2024/01/18 10:42:34;;;;;;;132.32;84.47;;;;;;;15.98;nan;99012.34;4984484;28;20063;-66
2024/01/18 10:45:06;;;;;;;125.20;80.88;;;;;;;15.95;nan;99010.13;4995687;28;20386;-66
2024/01/18 10:47:36;;;;;;;128.82;79.50;;;;;;;15.95;nan;99010.13;4984548;28;20065;-67
2024/01/18 10:50:08;;;;;;;123.93;79.50;;;;;;;15.92;nan;99018.56;4992681;28;20050;-67
2024/01/18 10:52:37;;;;;;;129.07;76.03;;;;;;;15.86;nan;99014.09;4997548;28;20073;-66
2024/01/18 10:55:09;;;;;;;119.07;76.65;;;;;;;15.91;nan;99012.41;4991309;28;20466;-67
2024/01/18 10:57:39;;;;;;;115.88;74.32;;;;;;;15.91;nan;99000.91;4995667;28;20043;-67
2024/01/18 11:00:15;;;;;;;120.25;78.07;;;;;;;16.03;nan;99007.16;4991514;28;20429;-67
2024/01/18 11:02:45;;;;;;;119.05;78.88;;;;;;;15.92;nan;99013.25;4997990;28;20050;-66
2024/01/18 11:05:20;;;;;;;124.00;79.55;;;;;;;15.93;nan;99009.53;4991479;28;20100;-67
2024/01/18 11:07:50;;;;;;;116.07;74.00;;;;;;;15.89;nan;99008.34;4992496;28;20181;-67
2024/01/18 11:10:20;;;;;;;119.88;74.63;;;;;;;15.95;nan;99018.13;4989714;28;20475;-67
2024/01/18 11:12:50;;;;;;;119.57;74.20;;;;;;;15.81;nan;99009.41;5000010;28;20047;-67
2024/01/18 11:15:20;;;;;;;117.93;75.85;;;;;;;15.60;nan;99007.13;4986634;28;20153;-67
2024/01/18 11:17:54;;;;;;;119.55;73.60;;;;;;;15.69;nan;99013.84;4995221;28;20136;-67
2024/01/18 11:20:24;;;;;;;128.15;74.18;;;;;;;15.61;nan;99014.09;4992828;28;20600;-67
2024/01/18 11:22:58;;;;;;;129.40;77.22;;;;;;;15.45;nan;99022.59;4988332;28;20093;-68
2024/01/18 11:25:32;;;;;;;127.68;76.35;;;;;;;15.28;nan;99020.44;4993285;28;20056;-67
2024/01/18 11:28:02;;;;;;;116.93;76.15;;;;;;;15.19;nan;99013.72;4986531;28;20045;-68
2024/01/18 11:30:38;;;;;;;118.90;74.38;;;;;;;15.14;nan;99026.06;4982633;28;20054;-68
2024/01/18 11:33:10;;;;;;;115.65;72.15;;;;;;;15.28;nan;99017.78;4992293;28;20498;-67
2024/01/18 11:35:42;;;;;;;116.20;72.03;;;;;;;15.37;nan;99025.53;4988959;28;20136;-65
2024/01/18 11:38:20;;;;;;;105.50;70.78;;;;;;;15.34;nan;99023.28;4984327;28;20122;-70
2024/01/18 11:40:57;;;;;;;105.95;67.50;;;;;;;15.20;nan;99023.38;4988904;28;20047;-68
2024/01/18 11:43:55;;;;;;;116.22;69.82;;;;;;;15.16;nan;99019.50;4987471;28;20042;-67